Wetterdaten: Woche 12.10.15 - 18.10.15 (KW42)
Datum Zeit Temperatur Luftfeuchte Luftdruck Niederschlag Windrichtung Sonnenschein Solar Wind
12.10.2015 00:00 5,9 C 93 % 1012,4 hPa 0,0 l/m NO 0,00 h 0 W/m 6,8 km/h (2 Bft)
12.10.2015 01:00 5,4 C 94 % 1012,4 hPa 0,0 l/m N-NO 0,00 h 0 W/m 8,9 km/h (2 Bft)
12.10.2015 02:00 4,4 C 94 % 1012,7 hPa 0,0 l/m NO 0,00 h 0 W/m 8,7 km/h (2 Bft)
12.10.2015 03:00 3,9 C 94 % 1012,9 hPa 0,0 l/m NO 0,00 h 0 W/m 7,8 km/h (2 Bft)
12.10.2015 04:00 3,3 C 93 % 1013,0 hPa 0,0 l/m NO 0,00 h 0 W/m 7,5 km/h (2 Bft)
12.10.2015 05:00 3,1 C 93 % 1013,3 hPa 0,0 l/m NO 0,00 h 0 W/m 6,1 km/h (2 Bft)
12.10.2015 06:00 2,8 C 93 % 1013,7 hPa 0,0 l/m N-NO 0,00 h 0 W/m 9,4 km/h (2 Bft)
12.10.2015 07:00 2,7 C 94 % 1014,0 hPa 0,0 l/m N-NO 0,00 h 0 W/m 10,5 km/h (2 Bft)
12.10.2015 08:00 2,7 C 94 % 1014,1 hPa 0,0 l/m N-NO 0,00 h 0 W/m 11,2 km/h (2 Bft)
12.10.2015 09:00 2,6 C 96 % 1014,5 hPa 0,0 l/m N-NO 0,00 h 47 W/m 9,8 km/h (2 Bft)
12.10.2015 10:00 2,8 C 97 % 1014,9 hPa 0,0 l/m N-NO 0,00 h 67 W/m 5,5 km/h (1 Bft)
12.10.2015 11:00 3,3 C 97 % 1015,1 hPa 0,0 l/m N-NO 0,00 h 86 W/m 5,3 km/h (1 Bft)
12.10.2015 12:00 4,0 C 97 % 1015,3 hPa 0,0 l/m N-NO 0,00 h 116 W/m 4,7 km/h (1 Bft)
12.10.2015 13:00 4,9 C 97 % 1015,1 hPa 0,0 l/m NO 0,00 h 97 W/m 3,9 km/h (1 Bft)
12.10.2015 14:00 5,6 C 96 % 1014,7 hPa 0,0 l/m O-NO 0,00 h 94 W/m 5,3 km/h (1 Bft)
12.10.2015 15:00 6,1 C 95 % 1014,5 hPa 0,0 l/m O-NO 0,00 h 82 W/m 6,8 km/h (2 Bft)
12.10.2015 16:00 6,5 C 94 % 1014,5 hPa 0,0 l/m NO 0,00 h 53 W/m 7,6 km/h (2 Bft)
12.10.2015 17:00 6,8 C 94 % 1014,6 hPa 0,0 l/m NO 0,00 h 37 W/m 5,3 km/h (1 Bft)
12.10.2015 18:00 6,8 C 93 % 1014,8 hPa 0,0 l/m NO 0,00 h 7 W/m 4,8 km/h (1 Bft)
12.10.2015 19:00 6,6 C 93 % 1014,9 hPa 0,0 l/m N 0,00 h 0 W/m 1,9 km/h (1 Bft)
12.10.2015 20:00 6,4 C 94 % 1014,8 hPa 0,0 l/m N 0,00 h 0 W/m 0,4 km/h (0 Bft)
12.10.2015 21:00 6,2 C 94 % 1014,4 hPa 0,0 l/m N 0,00 h 0 W/m 0,0 km/h (0 Bft)
12.10.2015 22:00 6,1 C 94 % 1014,4 hPa 0,0 l/m NO 0,00 h 0 W/m 1,2 km/h (1 Bft)
12.10.2015 23:00 5,8 C 95 % 1014,3 hPa 0,0 l/m N 0,00 h 0 W/m 0,0 km/h (0 Bft)
13.10.2015 00:00 5,6 C 95 % 1014,1 hPa 0,0 l/m N 0,00 h 0 W/m 0,0 km/h (0 Bft)
13.10.2015 01:00 5,3 C 95 % 1013,8 hPa 0,0 l/m N 0,00 h 0 W/m 1,2 km/h (1 Bft)
13.10.2015 02:00 5,2 C 96 % 1013,8 hPa 0,0 l/m N 0,00 h 0 W/m 0,0 km/h (0 Bft)
13.10.2015 03:00 5,1 C 96 % 1013,4 hPa 0,0 l/m N 0,00 h 0 W/m 0,0 km/h (0 Bft)
13.10.2015 04:00 5,1 C 97 % 1013,0 hPa 0,0 l/m N 0,00 h 0 W/m 0,7 km/h (0 Bft)
13.10.2015 05:00 5,0 C 97 % 1012,7 hPa 0,0 l/m N 0,00 h 0 W/m 0,7 km/h (0 Bft)
13.10.2015 06:00 4,8 C 97 % 1012,8 hPa 0,0 l/m N 0,00 h 0 W/m 0,9 km/h (0 Bft)
13.10.2015 07:00 4,8 C 97 % 1012,4 hPa 0,0 l/m N 0,00 h 0 W/m 0,4 km/h (0 Bft)
13.10.2015 08:00 4,8 C 97 % 1012,4 hPa 0,0 l/m NO 0,00 h 0 W/m 4,8 km/h (1 Bft)
13.10.2015 09:00 4,8 C 97 % 1012,5 hPa 0,0 l/m NO 0,00 h 0 W/m 1,5 km/h (1 Bft)
13.10.2015 10:00 4,8 C 97 % 1012,5 hPa 0,0 l/m N 0,00 h 0 W/m 0,0 km/h (0 Bft)
13.10.2015 11:00 5,6 C 98 % 1012,4 hPa 0,0 l/m N 0,00 h 93 W/m 0,7 km/h (0 Bft)
13.10.2015 12:00 7,1 C 99 % 1012,3 hPa 0,0 l/m N 0,00 h 120 W/m 0,0 km/h (0 Bft)
13.10.2015 13:00 8,2 C 99 % 1012,2 hPa 0,0 l/m NO 0,00 h 114 W/m 1,9 km/h (1 Bft)
13.10.2015 14:00 8,9 C 97 % 1011,9 hPa 0,0 l/m NO 0,00 h 76 W/m 2,4 km/h (1 Bft)
13.10.2015 15:00 9,3 C 95 % 1011,7 hPa 0,0 l/m NO 0,00 h 46 W/m 2,8 km/h (1 Bft)
13.10.2015 16:00 9,3 C 94 % 1011,6 hPa 1,2 l/m N 0,00 h 24 W/m 0,0 km/h (0 Bft)
13.10.2015 17:00 9,1 C 94 % 1011,6 hPa 0,8 l/m N 0,00 h 8 W/m 0,5 km/h (0 Bft)
13.10.2015 18:00 8,7 C 95 % 1011,8 hPa 0,6 l/m N 0,00 h 6 W/m 0,5 km/h (0 Bft)
13.10.2015 19:00 8,3 C 96 % 1012,2 hPa 2,2 l/m N 0,00 h 0 W/m 0,8 km/h (0 Bft)
13.10.2015 20:00 8,1 C 97 % 1011,9 hPa 0,8 l/m NO 0,00 h 0 W/m 2,5 km/h (1 Bft)
13.10.2015 21:00 7,8 C 97 % 1012,3 hPa 3,2 l/m NO 0,00 h 0 W/m 1,2 km/h (1 Bft)
13.10.2015 22:00 7,6 C 97 % 1012,9 hPa 3,0 l/m NO 0,00 h 0 W/m 6,0 km/h (2 Bft)
13.10.2015 23:00 7,1 C 97 % 1013,4 hPa 2,4 l/m N-NW 0,00 h 0 W/m 6,0 km/h (2 Bft)
14.10.2015 00:00 6,8 C 97 % 1013,6 hPa 1,0 l/m NW 0,00 h 0 W/m 2,9 km/h (1 Bft)
14.10.2015 01:00 6,2 C 97 % 1013,9 hPa 0,2 l/m W-SW 0,00 h 0 W/m 14,0 km/h (3 Bft)
14.10.2015 02:00 5,2 C 97 % 1014,2 hPa 0,0 l/m W-SW 0,00 h 0 W/m 15,6 km/h (3 Bft)
14.10.2015 03:00 4,9 C 97 % 1014,1 hPa 0,0 l/m SW 0,00 h 0 W/m 10,5 km/h (2 Bft)
14.10.2015 04:00 4,4 C 97 % 1013,8 hPa 0,0 l/m W-SW 0,00 h 0 W/m 10,1 km/h (2 Bft)
14.10.2015 05:00 4,2 C 97 % 1013,8 hPa 0,0 l/m W-SW 0,00 h 0 W/m 6,2 km/h (2 Bft)
14.10.2015 06:00 3,5 C 96 % 1013,6 hPa 0,0 l/m W-SW 0,00 h 0 W/m 9,3 km/h (2 Bft)
14.10.2015 07:00 3,3 C 96 % 1013,7 hPa 0,0 l/m W-SW 0,00 h 0 W/m 0,9 km/h (0 Bft)
14.10.2015 08:00 2,8 C 96 % 1013,7 hPa 0,0 l/m N 0,00 h 52 W/m 0,0 km/h (0 Bft)
14.10.2015 09:00 2,5 C 97 % 1014,1 hPa 0,0 l/m W-SW 0,33 h 146 W/m 0,9 km/h (0 Bft)
14.10.2015 10:00 4,2 C 98 % 1014,0 hPa 0,0 l/m W-SW 0,67 h 242 W/m 2,1 km/h (1 Bft)
14.10.2015 11:00 5,2 C 96 % 1013,8 hPa 0,0 l/m W 0,33 h 286 W/m 6,8 km/h (2 Bft)
14.10.2015 12:00 6,3 C 86 % 1013,4 hPa 0,0 l/m NW 0,75 h 494 W/m 7,0 km/h (2 Bft)
14.10.2015 13:00 7,6 C 79 % 1013,2 hPa 0,0 l/m S-SO 0,00 h 159 W/m 6,0 km/h (2 Bft)
14.10.2015 14:00 7,9 C 79 % 1012,8 hPa 0,0 l/m SO 0,00 h 179 W/m 4,8 km/h (1 Bft)
14.10.2015 15:00 8,0 C 75 % 1012,5 hPa 0,0 l/m O-SO 0,00 h 147 W/m 8,6 km/h (2 Bft)
14.10.2015 16:00 8,1 C 73 % 1012,6 hPa 0,0 l/m O-SO 0,00 h 84 W/m 6,4 km/h (2 Bft)
14.10.2015 17:00 7,7 C 78 % 1012,3 hPa 0,0 l/m N-NO 0,00 h 33 W/m 11,6 km/h (2 Bft)
14.10.2015 18:00 6,8 C 85 % 1012,7 hPa 0,0 l/m NO 0,00 h 8 W/m 7,0 km/h (2 Bft)
14.10.2015 19:00 6,1 C 87 % 1012,9 hPa 0,0 l/m NO 0,00 h 0 W/m 7,6 km/h (2 Bft)
14.10.2015 20:00 5,7 C 88 % 1012,8 hPa 0,0 l/m N-NO 0,00 h 0 W/m 9,0 km/h (2 Bft)
14.10.2015 21:00 5,4 C 90 % 1013,0 hPa 0,0 l/m N-NO 0,00 h 0 W/m 9,5 km/h (2 Bft)
14.10.2015 22:00 5,3 C 92 % 1013,2 hPa 0,0 l/m N-NO 0,00 h 0 W/m 11,0 km/h (2 Bft)
14.10.2015 23:00 5,0 C 94 % 1013,2 hPa 0,2 l/m N-NO 0,00 h 0 W/m 13,3 km/h (3 Bft)
15.10.2015 00:00 4,6 C 95 % 1012,9 hPa 0,4 l/m N-NO 0,00 h 0 W/m 14,4 km/h (3 Bft)
15.10.2015 01:00 4,2 C 95 % 1012,7 hPa 1,4 l/m NO 0,00 h 0 W/m 14,8 km/h (3 Bft)
15.10.2015 02:00 3,8 C 96 % 1012,7 hPa 1,0 l/m NO 0,00 h 0 W/m 15,7 km/h (3 Bft)
15.10.2015 03:00 3,4 C 96 % 1012,2 hPa 1,4 l/m NO 0,00 h 0 W/m 10,6 km/h (2 Bft)
15.10.2015 04:00 3,3 C 96 % 1012,0 hPa 0,8 l/m NO 0,00 h 0 W/m 11,7 km/h (2 Bft)
15.10.2015 05:00 3,1 C 96 % 1011,6 hPa 0,4 l/m NO 0,00 h 0 W/m 11,9 km/h (2 Bft)
15.10.2015 06:00 3,0 C 96 % 1011,3 hPa 0,2 l/m NO 0,00 h 0 W/m 10,5 km/h (2 Bft)
15.10.2015 07:00 2,9 C 97 % 1011,1 hPa 0,0 l/m N-NO 0,00 h 0 W/m 11,8 km/h (2 Bft)
15.10.2015 08:00 2,9 C 97 % 1011,1 hPa 0,0 l/m NO 0,00 h 8 W/m 5,7 km/h (1 Bft)
15.10.2015 09:00 3,1 C 97 % 1011,4 hPa 0,0 l/m N-NO 0,00 h 25 W/m 7,3 km/h (2 Bft)
15.10.2015 10:00 3,3 C 97 % 1011,6 hPa 0,0 l/m N-NO 0,00 h 35 W/m 5,9 km/h (2 Bft)
15.10.2015 11:00 3,7 C 97 % 1011,6 hPa 0,0 l/m N-NO 0,00 h 78 W/m 7,9 km/h (2 Bft)
15.10.2015 12:00 4,2 C 97 % 1011,9 hPa 0,0 l/m N-NO 0,00 h 72 W/m 6,5 km/h (2 Bft)
15.10.2015 13:00 4,5 C 96 % 1012,0 hPa 0,0 l/m NO 0,00 h 91 W/m 3,6 km/h (1 Bft)
15.10.2015 14:00 5,1 C 94 % 1011,9 hPa 0,0 l/m N-NO 0,00 h 50 W/m 6,1 km/h (2 Bft)
15.10.2015 15:00 5,1 C 93 % 1011,8 hPa 0,0 l/m N 0,00 h 57 W/m 0,7 km/h (0 Bft)
15.10.2015 16:00 5,3 C 91 % 1011,8 hPa 0,0 l/m N-NO 0,00 h 28 W/m 1,9 km/h (1 Bft)
15.10.2015 17:00 5,2 C 92 % 1012,2 hPa 0,0 l/m N 0,00 h 10 W/m 0,3 km/h (0 Bft)
15.10.2015 18:00 5,1 C 92 % 1012,5 hPa 0,0 l/m N-NO 0,00 h 5 W/m 4,9 km/h (1 Bft)
15.10.2015 19:00 4,7 C 93 % 1012,9 hPa 0,0 l/m N-NO 0,00 h 0 W/m 7,9 km/h (2 Bft)
15.10.2015 20:00 4,5 C 93 % 1013,4 hPa 0,0 l/m N 0,00 h 0 W/m 1,6 km/h (1 Bft)
15.10.2015 21:00 4,3 C 94 % 1014,2 hPa 0,0 l/m N 0,00 h 0 W/m 0,7 km/h (0 Bft)
15.10.2015 22:00 4,3 C 94 % 1014,5 hPa 0,0 l/m N 0,00 h 0 W/m 0,4 km/h (0 Bft)
15.10.2015 23:00 4,3 C 94 % 1014,8 hPa 0,0 l/m N-NO 0,00 h 0 W/m 4,1 km/h (1 Bft)
16.10.2015 00:00 4,1 C 94 % 1015,0 hPa 0,0 l/m N-NO 0,00 h 0 W/m 4,3 km/h (1 Bft)
16.10.2015 01:00 3,8 C 94 % 1015,2 hPa 0,0 l/m N-NO 0,00 h 0 W/m 6,3 km/h (2 Bft)
16.10.2015 02:00 3,7 C 94 % 1015,5 hPa 0,0 l/m N-NO 0,00 h 0 W/m 1,5 km/h (1 Bft)
16.10.2015 03:00 3,7 C 94 % 1015,5 hPa 0,0 l/m N 0,00 h 0 W/m 0,0 km/h (0 Bft)
16.10.2015 04:00 3,7 C 94 % 1015,2 hPa 0,0 l/m N 0,00 h 0 W/m 0,0 km/h (0 Bft)
16.10.2015 05:00 3,7 C 94 % 1015,2 hPa 0,0 l/m N 0,00 h 0 W/m 0,0 km/h (0 Bft)
16.10.2015 06:00 3,8 C 95 % 1015,6 hPa 0,0 l/m N 0,00 h 0 W/m 0,0 km/h (0 Bft)
16.10.2015 07:00 3,8 C 95 % 1015,8 hPa 0,0 l/m N-NO 0,00 h 0 W/m 0,5 km/h (0 Bft)
16.10.2015 08:00 3,7 C 95 % 1016,1 hPa 0,2 l/m N-NO 0,00 h 11 W/m 1,6 km/h (1 Bft)
16.10.2015 09:00 3,8 C 95 % 1016,8 hPa 0,6 l/m N-NO 0,00 h 26 W/m 0,9 km/h (0 Bft)
16.10.2015 10:00 3,9 C 95 % 1017,3 hPa 0,8 l/m N-NO 0,00 h 49 W/m 1,6 km/h (1 Bft)
16.10.2015 11:00 4,1 C 96 % 1017,4 hPa 0,0 l/m N-NO 0,00 h 82 W/m 0,5 km/h (0 Bft)
16.10.2015 12:00 4,5 C 95 % 1017,3 hPa 0,0 l/m N-NO 0,00 h 73 W/m 4,4 km/h (1 Bft)
16.10.2015 13:00 4,8 C 94 % 1016,9 hPa 0,0 l/m N-NO 0,00 h 103 W/m 5,8 km/h (1 Bft)
16.10.2015 14:00 5,0 C 91 % 1016,6 hPa 0,0 l/m NW 0,00 h 115 W/m 8,2 km/h (2 Bft)
16.10.2015 15:00 5,3 C 89 % 1016,8 hPa 0,0 l/m NW 0,00 h 82 W/m 4,1 km/h (1 Bft)
16.10.2015 16:00 5,5 C 89 % 1016,8 hPa 0,2 l/m N 0,00 h 64 W/m 0,0 km/h (0 Bft)
16.10.2015 17:00 5,3 C 90 % 1016,9 hPa 0,0 l/m NW 0,00 h 57 W/m 1,9 km/h (1 Bft)
16.10.2015 18:00 5,0 C 91 % 1017,1 hPa 0,0 l/m N 0,00 h 10 W/m 0,0 km/h (0 Bft)
16.10.2015 19:00 4,7 C 92 % 1017,5 hPa 0,0 l/m N 0,00 h 0 W/m 0,0 km/h (0 Bft)
16.10.2015 20:00 4,7 C 93 % 1018,0 hPa 0,2 l/m N 0,00 h 0 W/m 0,0 km/h (0 Bft)
16.10.2015 21:00 4,5 C 94 % 1018,2 hPa 0,0 l/m N 0,00 h 0 W/m 0,0 km/h (0 Bft)
16.10.2015 22:00 4,3 C 95 % 1018,4 hPa 0,6 l/m N 0,00 h 0 W/m 0,1 km/h (0 Bft)
16.10.2015 23:00 4,1 C 95 % 1018,4 hPa 1,2 l/m NW 0,00 h 0 W/m 1,7 km/h (1 Bft)
17.10.2015 00:00 3,7 C 95 % 1018,3 hPa 0,6 l/m NW 0,00 h 0 W/m 1,2 km/h (1 Bft)
17.10.2015 01:00 3,4 C 96 % 1017,8 hPa 0,2 l/m N 0,00 h 0 W/m 0,0 km/h (0 Bft)
17.10.2015 02:00 3,5 C 96 % 1017,7 hPa 0,0 l/m N 0,00 h 0 W/m 0,0 km/h (0 Bft)
17.10.2015 03:00 3,4 C 96 % 1017,7 hPa 0,0 l/m N 0,00 h 0 W/m 0,0 km/h (0 Bft)
17.10.2015 04:00 3,4 C 96 % 1017,4 hPa 0,0 l/m N 0,00 h 0 W/m 0,0 km/h (0 Bft)
17.10.2015 05:00 3,3 C 96 % 1017,3 hPa 0,0 l/m N 0,00 h 0 W/m 0,0 km/h (0 Bft)
17.10.2015 06:00 2,9 C 96 % 1017,5 hPa 0,0 l/m N 0,00 h 0 W/m 0,3 km/h (0 Bft)
17.10.2015 07:00 2,8 C 97 % 1017,6 hPa 0,0 l/m N 0,00 h 6 W/m 0,0 km/h (0 Bft)
17.10.2015 08:00 2,9 C 97 % 1017,6 hPa 0,0 l/m N 0,00 h 25 W/m 0,0 km/h (0 Bft)
17.10.2015 09:00 3,3 C 97 % 1017,7 hPa 0,0 l/m N 0,00 h 49 W/m 0,0 km/h (0 Bft)
17.10.2015 10:00 3,9 C 98 % 1017,7 hPa 0,0 l/m N 0,00 h 64 W/m 0,7 km/h (0 Bft)
17.10.2015 11:00 4,6 C 98 % 1017,5 hPa 0,0 l/m O-NO 0,00 h 94 W/m 6,3 km/h (2 Bft)
17.10.2015 12:00 5,1 C 98 % 1017,2 hPa 0,0 l/m NO 0,00 h 96 W/m 2,9 km/h (1 Bft)
17.10.2015 13:00 5,6 C 97 % 1017,1 hPa 0,0 l/m N 0,00 h 62 W/m 0,4 km/h (0 Bft)
17.10.2015 14:00 5,8 C 95 % 1016,8 hPa 0,0 l/m N 0,00 h 63 W/m 0,0 km/h (0 Bft)
17.10.2015 15:00 6,0 C 93 % 1016,7 hPa 0,0 l/m NO 0,00 h 62 W/m 3,2 km/h (1 Bft)
17.10.2015 16:00 6,3 C 91 % 1016,8 hPa 0,0 l/m N 0,00 h 47 W/m 0,9 km/h (0 Bft)
17.10.2015 17:00 6,3 C 91 % 1016,8 hPa 0,0 l/m NO 0,00 h 16 W/m 4,1 km/h (1 Bft)
17.10.2015 18:00 6,0 C 91 % 1017,0 hPa 0,0 l/m NO 0,00 h 0 W/m 2,3 km/h (1 Bft)
17.10.2015 19:00 5,7 C 93 % 1017,0 hPa 0,2 l/m N 0,00 h 0 W/m 0,0 km/h (0 Bft)
17.10.2015 20:00 5,4 C 94 % 1017,0 hPa 0,0 l/m N 0,00 h 0 W/m 0,0 km/h (0 Bft)
17.10.2015 21:00 5,1 C 94 % 1017,0 hPa 0,2 l/m N 0,00 h 0 W/m 0,0 km/h (0 Bft)
17.10.2015 22:00 5,0 C 95 % 1017,0 hPa 0,0 l/m N 0,00 h 0 W/m 0,0 km/h (0 Bft)
17.10.2015 23:00 5,1 C 95 % 1016,9 hPa 0,2 l/m N 0,00 h 0 W/m 0,0 km/h (0 Bft)
18.10.2015 00:00 5,1 C 96 % 1016,9 hPa 0,0 l/m N 0,00 h 0 W/m 0,0 km/h (0 Bft)
18.10.2015 01:00 4,8 C 96 % 1016,5 hPa 0,0 l/m N 0,00 h 0 W/m 0,0 km/h (0 Bft)
18.10.2015 02:00 4,7 C 96 % 1016,4 hPa 0,2 l/m N 0,00 h 0 W/m 0,0 km/h (0 Bft)
18.10.2015 03:00 4,6 C 97 % 1016,2 hPa 0,0 l/m N 0,00 h 0 W/m 0,0 km/h (0 Bft)
18.10.2015 04:00 4,6 C 97 % 1016,2 hPa 0,0 l/m N 0,00 h 0 W/m 0,0 km/h (0 Bft)
18.10.2015 05:00 4,7 C 97 % 1016,1 hPa 0,0 l/m N 0,00 h 0 W/m 0,0 km/h (0 Bft)
18.10.2015 06:00 4,7 C 97 % 1016,3 hPa 0,0 l/m N 0,00 h 0 W/m 0,0 km/h (0 Bft)
18.10.2015 07:00 4,6 C 97 % 1016,0 hPa 0,0 l/m N 0,00 h 5 W/m 0,3 km/h (0 Bft)
18.10.2015 08:00 4,6 C 97 % 1016,3 hPa 0,0 l/m N 0,00 h 12 W/m 0,0 km/h (0 Bft)
18.10.2015 09:00 4,7 C 98 % 1016,5 hPa 0,0 l/m NO 0,00 h 27 W/m 0,8 km/h (0 Bft)
18.10.2015 10:00 4,9 C 98 % 1016,7 hPa 0,0 l/m N 0,00 h 46 W/m 0,8 km/h (0 Bft)
18.10.2015 11:00 5,2 C 98 % 1016,7 hPa 0,0 l/m N 0,00 h 52 W/m 0,0 km/h (0 Bft)
18.10.2015 12:00 5,3 C 97 % 1016,8 hPa 0,0 l/m N 0,00 h 44 W/m 0,0 km/h (0 Bft)
18.10.2015 13:00 5,7 C 97 % 1016,8 hPa 0,2 l/m N 0,00 h 65 W/m 0,0 km/h (0 Bft)
18.10.2015 14:00 6,2 C 96 % 1016,8 hPa 0,0 l/m NO 0,00 h 131 W/m 3,5 km/h (1 Bft)
18.10.2015 15:00 6,8 C 93 % 1016,7 hPa 0,0 l/m NO 0,00 h 58 W/m 3,6 km/h (1 Bft)
18.10.2015 16:00 6,7 C 91 % 1016,9 hPa 0,0 l/m N 0,00 h 32 W/m 0,4 km/h (0 Bft)
18.10.2015 17:00 6,7 C 92 % 1016,7 hPa 0,0 l/m N 0,00 h 23 W/m 0,4 km/h (0 Bft)
18.10.2015 18:00 6,6 C 93 % 1016,5 hPa 0,0 l/m N 0,00 h 7 W/m 0,4 km/h (0 Bft)
18.10.2015 19:00 6,3 C 94 % 1016,7 hPa 0,0 l/m N 0,00 h 0 W/m 0,3 km/h (0 Bft)
18.10.2015 20:00 6,0 C 95 % 1017,0 hPa 0,0 l/m N 0,00 h 0 W/m 0,0 km/h (0 Bft)
18.10.2015 21:00 5,8 C 95 % 1017,2 hPa 0,0 l/m N 0,00 h 0 W/m 0,0 km/h (0 Bft)
18.10.2015 22:00 5,6 C 96 % 1017,3 hPa 0,0 l/m NO 0,00 h 0 W/m 0,8 km/h (0 Bft)
18.10.2015 23:00 5,3 C 96 % 1017,4 hPa 0,0 l/m NO 0,00 h 0 W/m 1,5 km/h (1 Bft)
Min-Datum _ 14.10.15 14.10.15 15.10.15 - - - - 12.10.15
_ Min-Zeit 08:30 17:00 07:50 - - - - 00:20
Minimum _ 2,2 C 71 % 1010,9 hPa - - - - 0,0 km/h (0 Bft)
Max-Datum _ 13.10.15 13.10.15 16.10.15 13.10.15 - 14.10.15 14.10.15 14.10.15
_ Max-Zeit 15:35 11:30 22:35 21:15 - 09:30 12:50 01:55
Maximum _ 9,4 C 99 % 1018,5 hPa 3,2 l/m - 0,08 h 636 W/m 20,9 km/h
W-SW (4 Bft)
Durchschnitt _ 5,1 C 94 % 1014,7 hPa #26,8 l/m NO #2:05 h 71 W/m 3,6 km/h (1 Bft)